createdAt,value
2023-03-08T00:01:27.229Z,19.70
2023-03-08T00:03:57.865Z,19.10
2023-03-08T00:06:27.532Z,19.23
2023-03-08T00:08:58.173Z,18.57
2023-03-08T00:11:27.532Z,19.73
2023-03-08T00:13:57.761Z,19.80
2023-03-08T00:16:26.525Z,21.20
2023-03-08T00:18:54.901Z,22.10
2023-03-08T00:21:23.606Z,21.17
2023-03-08T00:23:54.565Z,22.27
2023-03-08T00:26:23.096Z,23.83
2023-03-08T00:28:52.589Z,25.07
2023-03-08T00:31:23.122Z,23.83
2023-03-08T00:33:55.384Z,24.60
2023-03-08T00:36:24.194Z,23.27
2023-03-08T00:38:52.618Z,24.70
2023-03-08T00:41:21.307Z,25.30
2023-03-08T00:43:50.313Z,28.47
2023-03-08T00:46:18.672Z,26.93
2023-03-08T00:48:48.539Z,29.17
2023-03-08T00:51:19.584Z,29.40
2023-03-08T00:53:48.706Z,32.10
2023-03-08T00:56:17.428Z,33.63
2023-03-08T00:58:47.157Z,35.00
2023-03-08T01:01:18.075Z,38.70
2023-03-08T01:03:50.332Z,37.27
2023-03-08T01:06:18.948Z,40.20
2023-03-08T01:08:47.205Z,44.17
2023-03-08T01:11:22.392Z,44.33
2023-03-08T01:13:51.948Z,41.80
2023-03-08T01:16:23.020Z,44.23
2023-03-08T01:18:56.639Z,44.50
2023-03-08T01:21:26.102Z,45.80
2023-03-08T01:23:55.175Z,49.73
2023-03-08T01:26:27.367Z,47.33
2023-03-08T01:28:59.026Z,46.27
2023-03-08T01:31:31.456Z,48.67
2023-03-08T01:34:02.578Z,50.10
2023-03-08T01:36:30.952Z,46.90
2023-03-08T01:39:02.338Z,47.57
2023-03-08T01:41:33.109Z,45.40
2023-03-08T01:44:02.650Z,47.50
2023-03-08T01:46:32.120Z,48.00
2023-03-08T01:49:12.707Z,46.57
2023-03-08T01:51:45.705Z,47.50
2023-03-08T01:54:18.645Z,43.67
2023-03-08T01:56:50.631Z,46.50
2023-03-08T01:59:22.035Z,47.83
2023-03-08T02:01:51.164Z,53.30
2023-03-08T02:04:22.000Z,51.37
2023-03-08T02:06:50.637Z,52.10
2023-03-08T02:09:23.449Z,56.63
2023-03-08T02:11:55.052Z,54.20
2023-03-08T02:14:23.494Z,54.90
2023-03-08T02:16:53.419Z,53.57
2023-03-08T02:19:30.411Z,54.70
2023-03-08T02:21:58.844Z,52.63
2023-03-08T02:24:28.524Z,59.40
2023-03-08T02:27:03.323Z,57.90
2023-03-08T02:29:31.831Z,66.80
2023-03-08T02:32:00.134Z,59.07
2023-03-08T02:34:28.596Z,83.50
2023-03-08T02:36:56.984Z,70.07
2023-03-08T02:39:25.406Z,81.90
2023-03-08T02:41:57.959Z,72.53
2023-03-08T02:44:26.367Z,61.60
2023-03-08T02:46:54.998Z,80.30
2023-03-08T02:49:23.500Z,84.07
2023-03-08T02:51:53.374Z,77.27
2023-03-08T02:54:22.668Z,87.37
2023-03-08T02:56:51.021Z,88.40
2023-03-08T02:59:22.778Z,95.47
2023-03-08T03:01:52.982Z,91.30
2023-03-08T03:04:21.369Z,91.77
2023-03-08T03:06:49.756Z,92.70
2023-03-08T03:09:18.359Z,94.40
2023-03-08T03:11:46.928Z,107.97
2023-03-08T03:14:15.635Z,101.47
2023-03-08T03:16:46.840Z,111.47
2023-03-08T03:19:15.284Z,102.13
2023-03-08T03:21:43.693Z,122.40
2023-03-08T03:24:12.144Z,136.53
2023-03-08T03:26:46.549Z,136.53
2023-03-08T03:29:14.901Z,118.87
2023-03-08T03:31:48.536Z,147.13
2023-03-08T03:34:18.076Z,112.83
2023-03-08T03:36:48.012Z,94.87
2023-03-08T03:39:17.465Z,117.67
2023-03-08T03:41:47.145Z,140.83
2023-03-08T03:44:16.343Z,197.63
2023-03-08T03:46:48.155Z,223.97
2023-03-08T03:49:20.352Z,119.93
2023-03-08T03:51:49.213Z,198.17
2023-03-08T03:54:40.132Z,122.07
2023-03-08T03:57:08.620Z,126.47
2023-03-08T03:59:40.742Z,145.67
2023-03-08T04:02:11.044Z,124.13
2023-03-08T04:04:51.688Z,183.90
2023-03-08T04:07:23.684Z,118.93
2023-03-08T04:10:02.355Z,157.43
2023-03-08T04:12:32.318Z,115.87
2023-03-08T04:15:00.732Z,132.33
2023-03-08T04:17:34.045Z,114.23
2023-03-08T04:20:04.353Z,142.60
2023-03-08T04:22:36.935Z,125.73
2023-03-08T04:25:16.179Z,106.37
2023-03-08T04:27:50.554Z,172.00
2023-03-08T04:30:19.660Z,132.77
2023-03-08T04:32:49.400Z,197.60
2023-03-08T04:35:18.404Z,111.37
2023-03-08T04:37:50.194Z,111.83
2023-03-08T04:40:21.258Z,95.17
2023-03-08T04:42:55.728Z,129.13
2023-03-08T04:45:29.385Z,97.67
2023-03-08T04:48:01.769Z,144.17
2023-03-08T04:50:31.071Z,167.67
2023-03-08T04:52:59.964Z,94.40
2023-03-08T04:55:29.556Z,102.00
2023-03-08T04:57:58.820Z,122.20
2023-03-08T05:00:30.626Z,145.43
2023-03-08T05:03:01.208Z,105.60
2023-03-08T05:05:30.244Z,154.27
2023-03-08T05:08:04.259Z,102.00
2023-03-08T05:10:34.282Z,142.00
2023-03-08T05:13:02.710Z,111.87
2023-03-08T05:15:31.038Z,130.30
2023-03-08T05:17:59.385Z,118.20
2023-03-08T05:20:29.164Z,116.43
2023-03-08T05:22:59.536Z,122.57
2023-03-08T05:25:44.785Z,137.03
2023-03-08T05:28:15.863Z,98.87
2023-03-08T05:30:45.856Z,110.77
2023-03-08T05:33:15.693Z,114.00
2023-03-08T05:35:45.457Z,107.83
2023-03-08T05:38:14.053Z,103.50
2023-03-08T05:40:42.916Z,98.07
2023-03-08T05:43:12.460Z,117.60
2023-03-08T05:45:41.103Z,107.37
2023-03-08T05:48:09.916Z,107.33
2023-03-08T05:50:39.301Z,101.07
2023-03-08T05:53:09.032Z,100.87
2023-03-08T05:55:38.089Z,92.57
2023-03-08T05:58:07.019Z,87.43
2023-03-08T06:00:35.873Z,101.57
2023-03-08T06:03:04.639Z,84.10
2023-03-08T06:05:36.537Z,80.60
2023-03-08T06:08:05.185Z,80.77
2023-03-08T06:10:35.780Z,82.53
2023-03-08T06:13:04.561Z,70.73
2023-03-08T06:15:33.102Z,70.67
2023-03-08T06:18:01.886Z,67.10
2023-03-08T06:20:31.585Z,71.60
2023-03-08T06:22:59.939Z,70.47
2023-03-08T06:25:29.298Z,67.57
2023-03-08T06:27:59.027Z,62.07
2023-03-08T06:30:33.174Z,63.97
2023-03-08T06:33:01.581Z,59.10
2023-03-08T06:35:30.062Z,61.07
2023-03-08T06:38:02.202Z,54.03
2023-03-08T06:40:30.679Z,53.50
2023-03-08T06:43:00.750Z,50.53
2023-03-08T06:45:29.256Z,44.10
2023-03-08T06:47:57.683Z,40.97
2023-03-08T06:50:26.104Z,35.37
2023-03-08T06:52:56.238Z,34.20
2023-03-08T06:55:36.948Z,35.97
2023-03-08T06:58:07.276Z,37.33
2023-03-08T07:00:36.624Z,33.93
2023-03-08T07:03:05.214Z,31.80
2023-03-08T07:05:33.614Z,31.97
2023-03-08T07:08:02.053Z,33.17
2023-03-08T07:10:30.597Z,32.07
2023-03-08T07:12:59.058Z,33.57
2023-03-08T07:15:28.927Z,34.27
2023-03-08T07:17:58.271Z,34.33
2023-03-08T07:20:28.579Z,35.30
2023-03-08T07:22:57.429Z,33.40
2023-03-08T07:25:25.996Z,39.10
2023-03-08T07:27:54.391Z,38.00
2023-03-08T07:30:23.118Z,36.77
2023-03-08T07:32:54.851Z,37.37
2023-03-08T07:35:23.214Z,36.17
2023-03-08T07:37:51.748Z,33.83
2023-03-08T07:40:20.468Z,34.40
2023-03-08T07:42:49.137Z,32.57
2023-03-08T07:45:36.325Z,34.63
2023-03-08T07:48:07.086Z,32.80
2023-03-08T07:50:35.973Z,32.10
2023-03-08T07:53:05.004Z,31.07
2023-03-08T07:55:33.494Z,27.77
2023-03-08T07:58:01.945Z,27.97
2023-03-08T08:00:30.594Z,29.73
2023-03-08T08:02:59.194Z,28.50
2023-03-08T08:05:29.168Z,29.07
2023-03-08T08:07:57.560Z,26.10
2023-03-08T08:10:26.218Z,29.70
2023-03-08T08:12:54.600Z,25.50
2023-03-08T08:15:25.309Z,25.60
2023-03-08T08:17:54.356Z,24.03
2023-03-08T08:20:22.833Z,26.13
2023-03-08T08:22:53.430Z,23.87
2023-03-08T08:25:22.751Z,25.80
2023-03-08T08:27:52.040Z,23.00
2023-03-08T08:30:21.403Z,24.33
2023-03-08T08:32:49.956Z,24.90
2023-03-08T08:35:18.560Z,24.30
2023-03-08T08:37:46.932Z,24.90
2023-03-08T08:40:17.146Z,26.93
2023-03-08T08:42:45.541Z,24.17
2023-03-08T08:45:13.905Z,24.10
2023-03-08T08:47:42.223Z,24.80
2023-03-08T08:50:14.054Z,22.87
2023-03-08T08:52:42.827Z,25.00
2023-03-08T08:55:11.768Z,22.80
2023-03-08T08:57:41.509Z,24.13
2023-03-08T09:00:13.101Z,20.37
2023-03-08T09:02:41.524Z,21.60
2023-03-08T09:05:10.943Z,19.20
2023-03-08T09:07:39.689Z,20.50
2023-03-08T09:10:10.502Z,19.80
2023-03-08T09:12:39.032Z,18.23
2023-03-08T09:15:11.747Z,18.20
2023-03-08T09:17:40.669Z,17.13
2023-03-08T09:20:11.731Z,17.77
2023-03-08T09:22:40.747Z,17.67
2023-03-08T09:25:11.186Z,19.03
2023-03-08T09:27:41.263Z,17.97
2023-03-08T09:30:16.112Z,18.20
2023-03-08T09:32:45.083Z,17.70
2023-03-08T09:35:15.252Z,17.80
2023-03-08T09:37:43.707Z,18.90
2023-03-08T09:40:21.622Z,17.97
2023-03-08T09:42:50.158Z,15.43
2023-03-08T09:45:25.167Z,15.67
2023-03-08T09:48:04.905Z,15.30
2023-03-08T09:50:43.705Z,13.20
2023-03-08T09:53:25.430Z,13.03
2023-03-08T09:55:59.115Z,15.03
2023-03-08T09:58:35.816Z,14.30
2023-03-08T10:01:23.216Z,13.87
2023-03-08T10:04:25.122Z,14.07
2023-03-08T10:07:18.310Z,13.90
2023-03-08T10:09:54.105Z,12.70
2023-03-08T10:12:30.409Z,14.40
2023-03-08T10:15:04.890Z,13.30
2023-03-08T10:17:44.634Z,14.00
2023-03-08T10:20:21.131Z,15.30
2023-03-08T10:22:58.525Z,13.97
2023-03-08T10:25:31.330Z,13.83
2023-03-08T10:28:02.420Z,13.40
2023-03-08T10:30:38.206Z,13.03
2023-03-08T10:33:12.416Z,13.97
2023-03-08T10:35:58.113Z,15.20
2023-03-08T10:38:30.117Z,15.30
2023-03-08T10:41:07.733Z,13.50
2023-03-08T10:43:41.421Z,15.03
2023-03-08T10:46:16.049Z,15.63
2023-03-08T10:48:46.688Z,15.00
2023-03-08T10:51:20.753Z,15.37
2023-03-08T10:53:56.516Z,15.50
2023-03-08T10:56:32.555Z,14.40
2023-03-08T10:59:01.456Z,16.07
2023-03-08T11:01:32.636Z,15.70
2023-03-08T11:04:06.155Z,13.30
2023-03-08T11:06:36.325Z,14.13
2023-03-08T11:09:20.046Z,14.00
2023-03-08T11:11:48.872Z,14.37
2023-03-08T11:14:18.144Z,13.80
2023-03-08T11:16:56.368Z,14.30
2023-03-08T11:20:14.799Z,13.93
2023-03-08T11:23:08.200Z,13.53
2023-03-08T11:25:46.913Z,11.93
2023-03-08T11:28:45.816Z,11.80
2023-03-08T11:31:23.776Z,11.07
2023-03-08T11:34:21.925Z,9.13
2023-03-08T11:37:01.728Z,9.87
2023-03-08T11:39:36.815Z,10.30
2023-03-08T11:42:16.558Z,12.23
2023-03-08T11:45:07.475Z,11.33
2023-03-08T11:48:08.545Z,13.77
2023-03-08T11:50:43.244Z,12.60
2023-03-08T11:53:23.706Z,13.40
2023-03-08T11:56:43.951Z,13.80
2023-03-08T11:59:21.089Z,14.17
2023-03-08T12:01:53.929Z,12.00
2023-03-08T12:04:32.283Z,12.47
2023-03-08T12:07:06.440Z,11.20
2023-03-08T12:09:43.739Z,9.73
2023-03-08T12:12:19.963Z,10.20
2023-03-08T12:14:58.251Z,11.40
2023-03-08T12:17:32.710Z,11.47
2023-03-08T12:20:01.179Z,11.90
2023-03-08T12:22:44.723Z,12.43
2023-03-08T12:25:25.721Z,13.10
2023-03-08T12:28:01.627Z,13.60
2023-03-08T12:30:49.996Z,13.20
2023-03-08T12:33:19.494Z,12.70
2023-03-08T12:35:55.208Z,13.83
2023-03-08T12:38:35.398Z,12.40
2023-03-08T12:41:08.086Z,13.27
2023-03-08T12:43:38.711Z,13.33
2023-03-08T12:46:10.605Z,12.77
2023-03-08T12:48:48.730Z,13.00
2023-03-08T12:51:26.913Z,11.53
2023-03-08T12:54:02.675Z,12.37
2023-03-08T12:56:35.784Z,12.63
2023-03-08T12:59:33.914Z,11.57
2023-03-08T13:02:23.933Z,12.33
2023-03-08T13:05:19.822Z,11.23
2023-03-08T13:08:21.351Z,11.50
2023-03-08T13:11:03.696Z,11.60
2023-03-08T13:13:44.889Z,10.83
2023-03-08T13:16:33.503Z,11.70
2023-03-08T13:19:26.096Z,11.43
2023-03-08T13:22:07.871Z,10.40
2023-03-08T13:24:48.497Z,9.93
2023-03-08T13:27:33.445Z,11.07
2023-03-08T13:30:23.673Z,11.03
2023-03-08T13:32:53.212Z,10.83
2023-03-08T13:35:22.479Z,11.50
2023-03-08T13:37:55.716Z,9.97
2023-03-08T13:40:25.812Z,10.00
2023-03-08T13:42:56.314Z,9.90
2023-03-08T13:45:27.395Z,9.93
2023-03-08T13:47:58.304Z,11.17
2023-03-08T13:50:32.641Z,9.80
2023-03-08T13:53:04.353Z,9.03
2023-03-08T13:55:36.581Z,9.23
2023-03-08T13:58:05.711Z,9.50
2023-03-08T14:00:36.941Z,10.07
2023-03-08T14:03:07.846Z,8.83
2023-03-08T14:05:44.157Z,9.13
2023-03-08T14:08:23.341Z,8.30
2023-03-08T14:10:57.924Z,8.70
2023-03-08T14:13:31.032Z,8.90
2023-03-08T14:16:03.343Z,7.80
2023-03-08T14:18:35.584Z,7.57
2023-03-08T14:21:08.593Z,7.80
2023-03-08T14:23:43.149Z,7.87
2023-03-08T14:26:34.267Z,9.30
2023-03-08T14:29:18.221Z,8.47
2023-03-08T14:32:01.631Z,8.77
2023-03-08T14:34:34.056Z,7.97
2023-03-08T14:37:07.090Z,7.40
2023-03-08T14:39:37.431Z,7.17
2023-03-08T14:42:20.034Z,8.50
2023-03-08T14:44:53.865Z,8.53
2023-03-08T14:47:27.504Z,9.20
2023-03-08T14:50:03.928Z,7.80
2023-03-08T14:52:36.071Z,8.87
2023-03-08T14:55:19.938Z,7.83
2023-03-08T14:57:48.362Z,8.33
2023-03-08T15:00:18.996Z,9.90
2023-03-08T15:02:48.964Z,9.27
2023-03-08T15:05:28.723Z,9.10
2023-03-08T15:08:00.483Z,8.53
2023-03-08T15:10:32.849Z,8.80
2023-03-08T15:13:01.986Z,8.97
2023-03-08T15:15:30.413Z,9.53
2023-03-08T15:18:00.125Z,10.37
2023-03-08T15:20:28.616Z,9.87
2023-03-08T15:23:00.858Z,10.00
2023-03-08T15:25:32.195Z,9.50
2023-03-08T15:28:00.551Z,10.77
2023-03-08T15:30:31.690Z,11.20
2023-03-08T15:33:02.645Z,10.63
2023-03-08T15:35:31.740Z,11.73
2023-03-08T15:38:00.379Z,10.40
2023-03-08T15:40:31.936Z,12.10
2023-03-08T15:43:01.022Z,11.17
2023-03-08T15:45:29.650Z,10.83
2023-03-08T15:48:01.078Z,11.23
2023-03-08T15:50:30.872Z,12.03
2023-03-08T15:52:59.878Z,11.73
2023-03-08T15:55:32.085Z,11.60
2023-03-08T15:58:00.849Z,12.00
2023-03-08T16:00:30.279Z,12.50
2023-03-08T16:03:00.190Z,11.90
2023-03-08T16:05:29.173Z,12.20
2023-03-08T16:07:59.974Z,12.87
2023-03-08T16:10:30.226Z,13.60
2023-03-08T16:12:58.923Z,13.80
2023-03-08T16:15:27.552Z,13.90
2023-03-08T16:17:56.682Z,15.70
2023-03-08T16:20:27.680Z,13.87
2023-03-08T16:22:57.719Z,13.50
2023-03-08T16:25:27.515Z,15.60
2023-03-08T16:27:57.237Z,15.13
2023-03-08T16:30:29.294Z,14.47
2023-03-08T16:33:00.260Z,15.07
2023-03-08T16:35:33.908Z,15.97
2023-03-08T16:38:04.046Z,17.33
2023-03-08T16:40:33.753Z,15.00
2023-03-08T16:43:02.314Z,16.90
2023-03-08T16:45:30.927Z,16.83
2023-03-08T16:47:59.428Z,16.83
2023-03-08T16:50:30.048Z,15.40
2023-03-08T16:52:59.571Z,17.00
2023-03-08T16:55:28.002Z,17.33
2023-03-08T16:57:56.524Z,15.97
2023-03-08T17:00:27.147Z,16.87
2023-03-08T17:02:55.525Z,15.47
2023-03-08T17:05:23.928Z,18.90
2023-03-08T17:07:53.653Z,15.87
2023-03-08T17:10:22.146Z,16.10
2023-03-08T17:12:50.846Z,17.70
2023-03-08T17:15:19.270Z,16.47
2023-03-08T17:17:47.652Z,17.63
2023-03-08T17:20:16.060Z,17.17
2023-03-08T17:22:45.058Z,17.57
2023-03-08T17:25:14.805Z,19.27
2023-03-08T17:27:43.159Z,16.43
2023-03-08T17:30:14.198Z,17.83
2023-03-08T17:32:42.842Z,17.27
2023-03-08T17:35:11.592Z,18.37
2023-03-08T17:37:41.618Z,18.50
2023-03-08T17:40:12.437Z,18.53
2023-03-08T17:42:42.535Z,19.97
2023-03-08T17:45:12.050Z,20.97
2023-03-08T17:47:40.638Z,19.00
2023-03-08T17:50:13.864Z,19.47
2023-03-08T17:52:42.637Z,19.83
2023-03-08T17:55:12.342Z,19.07
2023-03-08T17:57:42.177Z,21.27
2023-03-08T18:00:12.613Z,22.30
2023-03-08T18:02:40.993Z,21.87
2023-03-08T18:05:11.105Z,19.83
2023-03-08T18:07:41.884Z,24.17
2023-03-08T18:10:13.308Z,23.10
2023-03-08T18:12:43.174Z,22.67
2023-03-08T18:15:14.582Z,23.30
2023-03-08T18:17:43.144Z,25.20
2023-03-08T18:20:12.987Z,24.30
2023-03-08T18:22:41.963Z,22.97
2023-03-08T18:25:11.307Z,24.47
2023-03-08T18:27:40.361Z,23.97
2023-03-08T18:30:13.129Z,23.57
2023-03-08T18:32:41.929Z,25.63
2023-03-08T18:35:13.310Z,27.33
2023-03-08T18:37:41.795Z,26.53
2023-03-08T18:40:12.584Z,28.23
2023-03-08T18:42:41.146Z,26.97
2023-03-08T18:45:12.345Z,28.63
2023-03-08T18:47:40.801Z,28.67
2023-03-08T18:50:11.383Z,28.43
2023-03-08T18:52:39.830Z,28.60
2023-03-08T18:55:09.764Z,30.87
2023-03-08T18:57:39.196Z,30.23
2023-03-08T19:00:12.042Z,30.43
2023-03-08T19:02:40.565Z,28.37
2023-03-08T19:05:10.115Z,30.10
2023-03-08T19:07:41.173Z,28.97
2023-03-08T19:10:14.713Z,30.00
2023-03-08T19:12:43.922Z,28.67
2023-03-08T19:15:13.836Z,28.47
2023-03-08T19:17:42.435Z,30.00
2023-03-08T19:20:12.787Z,29.37
2023-03-08T19:22:41.315Z,30.43
2023-03-08T19:25:10.637Z,30.23
2023-03-08T19:27:39.251Z,29.70
2023-03-08T19:30:09.226Z,30.97
2023-03-08T19:32:40.987Z,29.57
2023-03-08T19:35:11.323Z,29.23
2023-03-08T19:37:39.970Z,27.97
2023-03-08T19:40:10.527Z,28.73
2023-03-08T19:42:38.945Z,28.90
2023-03-08T19:45:09.145Z,27.80
2023-03-08T19:47:38.919Z,30.00
2023-03-08T19:50:08.812Z,28.13
2023-03-08T19:52:37.400Z,29.47
2023-03-08T19:55:07.638Z,28.53
2023-03-08T19:57:36.485Z,28.27
2023-03-08T20:00:06.916Z,29.00
2023-03-08T20:02:45.677Z,25.90
2023-03-08T20:05:14.108Z,28.40
2023-03-08T20:07:42.453Z,27.83
2023-03-08T20:10:17.743Z,27.07
2023-03-08T20:12:47.119Z,27.10
2023-03-08T20:15:15.580Z,26.93
2023-03-08T20:17:47.895Z,28.50
2023-03-08T20:20:17.060Z,29.23
2023-03-08T20:22:45.493Z,29.33
2023-03-08T20:25:13.975Z,28.70
2023-03-08T20:27:43.654Z,29.43
2023-03-08T20:30:14.922Z,30.40
2023-03-08T20:32:44.772Z,31.50
2023-03-08T20:35:15.012Z,32.90
2023-03-08T20:37:43.875Z,29.90
2023-03-08T20:40:14.668Z,30.70
2023-03-08T20:42:43.412Z,33.07
2023-03-08T20:45:13.201Z,30.47
2023-03-08T20:47:41.611Z,29.53
2023-03-08T20:50:13.005Z,29.00
2023-03-08T20:52:41.369Z,30.37
2023-03-08T20:55:10.437Z,30.60
2023-03-08T20:57:39.260Z,30.03
2023-03-08T21:00:09.888Z,27.83
2023-03-08T21:02:38.749Z,29.67
2023-03-08T21:05:08.463Z,30.43
2023-03-08T21:07:38.337Z,31.53
2023-03-08T21:10:07.792Z,30.70
2023-03-08T21:12:38.719Z,31.97
2023-03-08T21:15:09.207Z,32.67
2023-03-08T21:17:39.946Z,32.40
2023-03-08T21:20:10.875Z,31.67
2023-03-08T21:22:40.607Z,30.77
2023-03-08T21:25:10.062Z,32.33
2023-03-08T21:27:38.529Z,32.93
2023-03-08T21:30:08.722Z,29.67
2023-03-08T21:32:37.287Z,30.30
2023-03-08T21:35:06.530Z,31.70
2023-03-08T21:37:35.664Z,31.83
2023-03-08T21:40:07.250Z,33.00
2023-03-08T21:42:35.820Z,33.30
2023-03-08T21:45:04.448Z,34.00
2023-03-08T21:47:32.980Z,32.07
2023-03-08T21:50:01.313Z,33.30
2023-03-08T21:52:29.763Z,33.93
2023-03-08T21:54:58.091Z,34.10
2023-03-08T21:57:27.867Z,36.07
2023-03-08T21:59:56.199Z,34.67
2023-03-08T22:02:24.581Z,32.10
2023-03-08T22:04:53.072Z,34.37
2023-03-08T22:07:21.506Z,32.10
2023-03-08T22:09:49.883Z,33.07
2023-03-08T22:12:19.719Z,33.10
2023-03-08T22:14:49.489Z,32.93
2023-03-08T22:17:17.796Z,32.23
2023-03-08T22:19:46.132Z,32.80
2023-03-08T22:22:14.459Z,33.40
2023-03-08T22:24:42.819Z,33.27
2023-03-08T22:27:13.099Z,32.57
2023-03-08T22:29:41.688Z,32.40
2023-03-08T22:32:11.718Z,36.83
2023-03-08T22:34:40.258Z,31.73
2023-03-08T22:37:08.955Z,34.67
2023-03-08T22:39:38.667Z,32.40
2023-03-08T22:42:07.414Z,35.30
2023-03-08T22:44:35.921Z,31.20
2023-03-08T22:47:04.385Z,28.77
2023-03-08T22:49:34.407Z,36.40
2023-03-08T22:52:03.243Z,31.13
2023-03-08T22:54:31.951Z,31.27
2023-03-08T22:57:00.320Z,33.00
2023-03-08T22:59:28.923Z,31.13
2023-03-08T23:01:57.506Z,31.23
2023-03-08T23:04:25.926Z,34.60
2023-03-08T23:06:55.889Z,31.20
2023-03-08T23:09:24.360Z,32.27
2023-03-08T23:11:52.750Z,33.90
2023-03-08T23:14:21.222Z,33.27
2023-03-08T23:16:49.720Z,31.77
2023-03-08T23:19:21.682Z,31.90
2023-03-08T23:21:50.385Z,33.60
2023-03-08T23:24:20.724Z,32.07
2023-03-08T23:26:49.218Z,33.10
2023-03-08T23:29:17.710Z,34.57
2023-03-08T23:31:47.639Z,37.00
2023-03-08T23:34:16.116Z,33.13
2023-03-08T23:36:44.547Z,35.03
2023-03-08T23:39:13.157Z,37.57
2023-03-08T23:41:42.983Z,35.40
2023-03-08T23:44:12.438Z,38.47
2023-03-08T23:46:41.192Z,34.90
2023-03-08T23:49:10.494Z,39.43
2023-03-08T23:51:38.877Z,32.63
2023-03-08T23:54:07.322Z,34.57
2023-03-08T23:56:38.804Z,32.70
2023-03-08T23:59:13.124Z,34.77
